Time;durP1;ratioP1;P1;durP2;ratioP2;P2;SDS_P1;SDS_P2;PMS_P1;PMS_P2;Temp;Humidity;BMP_temperature;BMP_pressure;BME280_temperature;BME280_humidity;BME280_pressure;Samples;Min_cycle;Max_cycle;Signal;HPM_P1;HPM_P2
2022/03/09 00:02:08;;;;;;;15.40;7.07;;;;;;;;;;5007163;28;20018;-84
2022/03/09 00:04:34;;;;;;;14.35;7.25;;;;;;;;;;5007116;28;20124;-87
2022/03/09 00:07:00;;;;;;;16.27;6.55;;;;;;;;;;5010244;28;20026;-83
2022/03/09 00:09:26;;;;;;;15.57;6.57;;;;;;;;;;5019074;28;20030;-87
2022/03/09 00:11:52;;;;;;;15.68;7.63;;;;;;;;;;5008164;28;20117;-86
2022/03/09 00:14:18;;;;;;;15.93;7.65;;;;;;;;;;5008393;28;20034;-86
2022/03/09 00:16:44;;;;;;;10.32;6.22;;;;;;;;;;5025612;28;20105;-85
2022/03/09 00:19:10;;;;;;;14.20;7.13;;;;;;;;;;5024215;28;20036;-86
2022/03/09 00:21:36;;;;;;;12.90;6.40;;;;;;;;;;5024401;28;20022;-86
2022/03/09 00:24:03;;;;;;;11.30;6.25;;;;;;;;;;5023236;28;20022;-86
2022/03/09 00:26:29;;;;;;;16.70;6.53;;;;;;;;;;5022792;28;20026;-86
2022/03/09 00:28:55;;;;;;;19.80;6.28;;;;;;;;;;5005140;28;20084;-84
2022/03/09 00:31:21;;;;;;;12.73;6.50;;;;;;;;;;5005624;28;21855;-85
2022/03/09 00:33:47;;;;;;;12.70;6.13;;;;;;;;;;5006468;28;20053;-84
2022/03/09 00:36:13;;;;;;;14.05;6.68;;;;;;;;;;5023880;28;20121;-87
2022/03/09 00:38:39;;;;;;;10.38;6.15;;;;;;;;;;5023728;28;20023;-87
2022/03/09 00:41:05;;;;;;;10.52;5.93;;;;;;;;;;5024552;28;20026;-90
2022/03/09 00:43:31;;;;;;;16.08;6.55;;;;;;;;;;5025001;28;20033;-87
2022/03/09 00:45:57;;;;;;;11.25;6.78;;;;;;;;;;5007774;28;20036;-87
2022/03/09 00:48:23;;;;;;;12.90;6.07;;;;;;;;;;5024342;28;20049;-88
2022/03/09 00:50:49;;;;;;;19.70;6.97;;;;;;;;;;5024405;28;20052;-88
2022/03/09 00:53:15;;;;;;;13.30;6.57;;;;;;;;;;5024799;28;20025;-89
2022/03/09 00:55:41;;;;;;;11.32;6.22;;;;;;;;;;5023164;28;20116;-88
2022/03/09 00:58:07;;;;;;;15.45;7.15;;;;;;;;;;5024771;28;20359;-87
2022/03/09 01:00:33;;;;;;;13.52;6.20;;;;;;;;;;5006980;28;20037;-87
2022/03/09 01:02:59;;;;;;;20.10;6.97;;;;;;;;;;5007084;28;20030;-86
2022/03/09 01:05:25;;;;;;;20.17;7.50;;;;;;;;;;5023517;28;20022;-88
2022/03/09 01:07:51;;;;;;;12.57;6.30;;;;;;;;;;5003843;28;20025;-87
2022/03/09 01:10:18;;;;;;;13.70;6.38;;;;;;;;;;5019228;28;20481;-88
2022/03/09 01:12:45;;;;;;;11.02;6.10;;;;;;;;;;5000637;28;20037;-87
2022/03/09 01:15:11;;;;;;;21.02;7.03;;;;;;;;;;5018603;28;20026;-87
2022/03/09 01:17:37;;;;;;;12.98;6.80;;;;;;;;;;5000725;28;20025;-87
2022/03/09 01:20:03;;;;;;;11.85;7.40;;;;;;;;;;5018348;28;20474;-87
2022/03/09 01:22:29;;;;;;;15.48;7.13;;;;;;;;;;5017143;28;20485;-87
2022/03/09 01:24:55;;;;;;;10.40;6.20;;;;;;;;;;5001363;28;20406;-86
2022/03/09 01:27:21;;;;;;;17.13;6.93;;;;;;;;;;5016375;28;20026;-87
2022/03/09 01:29:47;;;;;;;14.02;7.45;;;;;;;;;;5001491;28;20121;-87
2022/03/09 01:32:13;;;;;;;12.07;6.85;;;;;;;;;;5018510;28;20402;-88
2022/03/09 01:34:39;;;;;;;16.80;7.05;;;;;;;;;;5017358;28;20033;-87
2022/03/09 01:37:05;;;;;;;16.13;7.13;;;;;;;;;;5018399;28;20026;-86
2022/03/09 01:39:31;;;;;;;16.02;7.13;;;;;;;;;;5018575;28;20390;-88
2022/03/09 01:41:57;;;;;;;13.27;6.60;;;;;;;;;;5018980;28;20038;-86
2022/03/09 01:44:24;;;;;;;11.30;6.35;;;;;;;;;;5000545;28;20030;-88
2022/03/09 01:46:51;;;;;;;13.10;6.72;;;;;;;;;;5000852;28;20029;-88
2022/03/09 01:49:17;;;;;;;11.52;6.82;;;;;;;;;;5018571;28;20025;-87
2022/03/09 01:51:45;;;;;;;15.45;6.25;;;;;;;;;;5017992;28;20394;-87
2022/03/09 01:54:11;;;;;;;16.08;6.82;;;;;;;;;;5018540;28;20555;-87
2022/03/09 01:56:38;;;;;;;13.32;6.55;;;;;;;;;;5000380;28;20022;-87
2022/03/09 01:59:05;;;;;;;17.60;6.45;;;;;;;;;;5018773;28;20018;-87
2022/03/09 02:01:31;;;;;;;11.75;6.47;;;;;;;;;;5003666;28;20018;-87
2022/03/09 02:03:58;;;;;;;13.10;6.60;;;;;;;;;;5019882;28;20041;-88
2022/03/09 02:06:24;;;;;;;13.30;6.45;;;;;;;;;;5029304;28;20052;-86
2022/03/09 02:11:35;;;;;;;13.68;6.60;;;;;;;;;;5019060;28;20084;-87
2022/03/09 02:14:01;;;;;;;14.02;6.75;;;;;;;;;;5019148;28;20032;-87
2022/03/09 02:16:28;;;;;;;14.85;7.03;;;;;;;;;;5000110;28;20057;-85
2022/03/09 02:18:54;;;;;;;14.73;6.63;;;;;;;;;;5017674;28;20053;-87
2022/03/09 02:21:20;;;;;;;11.98;6.25;;;;;;;;;;5018126;28;20026;-86
2022/03/09 02:23:47;;;;;;;14.52;7.18;;;;;;;;;;5015442;28;20026;-87
2022/03/09 02:26:13;;;;;;;12.32;7.00;;;;;;;;;;5015032;28;20030;-85
2022/03/09 02:28:40;;;;;;;14.82;7.07;;;;;;;;;;4996789;28;20033;-87
2022/03/09 02:31:06;;;;;;;13.48;6.63;;;;;;;;;;5015144;28;20037;-87
2022/03/09 02:33:33;;;;;;;13.85;6.68;;;;;;;;;;5018381;28;20025;-87
2022/03/09 02:35:59;;;;;;;16.15;7.20;;;;;;;;;;5017936;28;20515;-87
2022/03/09 02:38:25;;;;;;;14.88;6.95;;;;;;;;;;5000228;28;20030;-87
2022/03/09 02:40:50;;;;;;;14.02;7.07;;;;;;;;;;5017224;28;20035;-87
2022/03/09 02:43:16;;;;;;;14.25;7.03;;;;;;;;;;5000063;28;20073;-87
2022/03/09 02:45:42;;;;;;;16.20;7.22;;;;;;;;;;5000363;28;20034;-88
2022/03/09 02:48:08;;;;;;;13.18;7.32;;;;;;;;;;5000764;28;20026;-87
2022/03/09 02:50:34;;;;;;;15.35;6.50;;;;;;;;;;5017877;28;20475;-86
2022/03/09 02:53:00;;;;;;;13.63;6.68;;;;;;;;;;5000671;28;20022;-86
2022/03/09 02:55:26;;;;;;;14.15;6.78;;;;;;;;;;5002505;28;20032;-88
2022/03/09 02:57:52;;;;;;;12.50;6.72;;;;;;;;;;5001881;28;20508;-88
2022/03/09 03:00:18;;;;;;;12.65;6.68;;;;;;;;;;4999519;28;20045;-86
2022/03/09 03:02:44;;;;;;;15.23;7.57;;;;;;;;;;5017612;28;20029;-87
2022/03/09 03:05:10;;;;;;;14.63;6.75;;;;;;;;;;5015847;28;20030;-88
2022/03/09 03:07:37;;;;;;;19.30;7.57;;;;;;;;;;4999859;28;20034;-88
2022/03/09 03:10:03;;;;;;;15.73;8.07;;;;;;;;;;4999282;28;20421;-86
2022/03/09 03:12:30;;;;;;;20.00;7.65;;;;;;;;;;4999348;28;20026;-87
2022/03/09 03:14:56;;;;;;;15.75;7.57;;;;;;;;;;5016751;28;20037;-87
2022/03/09 03:17:22;;;;;;;21.52;6.90;;;;;;;;;;5015953;28;20030;-87
2022/03/09 03:19:48;;;;;;;11.65;6.22;;;;;;;;;;4999380;28;20037;-87
2022/03/09 03:22:14;;;;;;;13.63;7.30;;;;;;;;;;5016567;28;20509;-87
2022/03/09 03:24:40;;;;;;;13.95;6.82;;;;;;;;;;5014790;28;20026;-88
2022/03/09 03:27:06;;;;;;;12.25;6.82;;;;;;;;;;4997984;28;20102;-87
2022/03/09 03:29:35;;;;;;;18.30;7.43;;;;;;;;;;5019362;28;20394;-85
2022/03/09 03:32:01;;;;;;;12.27;6.35;;;;;;;;;;5019748;28;20034;-87
2022/03/09 03:34:27;;;;;;;17.52;7.93;;;;;;;;;;5002309;28;20047;-87
2022/03/09 03:36:53;;;;;;;14.45;7.00;;;;;;;;;;5019626;28;20538;-87
2022/03/09 03:39:19;;;;;;;14.93;6.88;;;;;;;;;;5002025;28;20025;-87
2022/03/09 03:41:45;;;;;;;14.68;7.38;;;;;;;;;;5019664;28;20391;-87
2022/03/09 03:44:11;;;;;;;14.05;7.30;;;;;;;;;;5019961;28;20033;-88
2022/03/09 03:46:37;;;;;;;15.75;7.38;;;;;;;;;;5001838;28;20029;-87
2022/03/09 03:49:04;;;;;;;15.30;6.63;;;;;;;;;;5004093;28;20052;-87
2022/03/09 03:51:30;;;;;;;14.55;7.28;;;;;;;;;;5024188;28;20077;-87
2022/03/09 03:53:56;;;;;;;12.98;6.93;;;;;;;;;;5005965;28;20466;-86
2022/03/09 03:56:22;;;;;;;15.32;7.15;;;;;;;;;;5017823;28;20049;-88
2022/03/09 03:58:48;;;;;;;13.90;6.78;;;;;;;;;;5003774;28;20041;-86
2022/03/09 04:01:14;;;;;;;12.32;6.07;;;;;;;;;;5011193;28;20096;-87
2022/03/09 04:03:40;;;;;;;17.15;7.22;;;;;;;;;;5025586;28;20036;-87
2022/03/09 04:06:06;;;;;;;14.50;6.75;;;;;;;;;;5022846;28;20041;-87
2022/03/09 04:08:32;;;;;;;13.52;6.57;;;;;;;;;;5008010;28;20061;-88
2022/03/09 04:10:58;;;;;;;19.80;7.80;;;;;;;;;;5007437;28;20571;-87
2022/03/09 04:13:24;;;;;;;12.18;6.97;;;;;;;;;;5007337;28;20029;-88
2022/03/09 04:15:50;;;;;;;14.25;7.00;;;;;;;;;;5024486;28;20072;-87
2022/03/09 04:18:16;;;;;;;17.52;7.10;;;;;;;;;;5002864;28;20394;-88
2022/03/09 04:20:42;;;;;;;17.55;7.75;;;;;;;;;;5003476;28;20018;-87
2022/03/09 04:23:09;;;;;;;14.65;7.00;;;;;;;;;;4997837;28;20034;-87
2022/03/09 04:25:35;;;;;;;14.30;6.65;;;;;;;;;;4997066;28;20509;-87
2022/03/09 04:28:02;;;;;;;16.52;7.40;;;;;;;;;;4996366;28;20065;-87
2022/03/09 04:30:28;;;;;;;12.77;6.90;;;;;;;;;;4996356;28;20022;-87
2022/03/09 04:32:54;;;;;;;18.90;7.72;;;;;;;;;;4995615;28;20022;-86
2022/03/09 04:35:20;;;;;;;14.20;8.25;;;;;;;;;;4997431;28;20045;-88
2022/03/09 04:37:46;;;;;;;17.25;7.35;;;;;;;;;;4998301;28;20029;-87
2022/03/09 04:40:13;;;;;;;12.95;7.30;;;;;;;;;;5003108;28;20057;-87
2022/03/09 04:42:39;;;;;;;13.68;7.07;;;;;;;;;;4999076;28;20160;-86
2022/03/09 04:45:05;;;;;;;14.40;7.38;;;;;;;;;;5016909;28;20160;-87
2022/03/09 04:47:31;;;;;;;13.55;6.78;;;;;;;;;;4998736;28;20033;-85
2022/03/09 04:49:57;;;;;;;15.48;7.35;;;;;;;;;;5016687;28;20657;-86
2022/03/09 04:52:23;;;;;;;16.27;6.88;;;;;;;;;;4998278;28;20106;-87
2022/03/09 04:54:49;;;;;;;11.48;6.20;;;;;;;;;;4999241;28;20033;-87
2022/03/09 04:57:15;;;;;;;15.48;7.13;;;;;;;;;;5016799;28;20030;-87
2022/03/09 04:59:41;;;;;;;15.02;7.15;;;;;;;;;;4999344;28;20445;-87
2022/03/09 05:02:07;;;;;;;16.40;7.72;;;;;;;;;;5016523;28;20030;-87
2022/03/09 05:04:33;;;;;;;20.83;8.38;;;;;;;;;;5016819;28;20049;-87
2022/03/09 05:06:59;;;;;;;13.20;6.13;;;;;;;;;;4998685;28;20049;-86
2022/03/09 05:09:25;;;;;;;14.30;6.78;;;;;;;;;;5001111;28;20022;-88
2022/03/09 05:11:51;;;;;;;12.60;6.28;;;;;;;;;;5000140;28;20119;-87
2022/03/09 05:14:17;;;;;;;14.63;7.10;;;;;;;;;;4999884;28;20026;-87
2022/03/09 05:16:43;;;;;;;15.05;7.47;;;;;;;;;;5000681;28;20022;-87
2022/03/09 05:19:09;;;;;;;14.93;7.20;;;;;;;;;;5016696;28;20022;-88
2022/03/09 05:21:35;;;;;;;16.15;7.22;;;;;;;;;;5017155;28;20040;-87
2022/03/09 05:24:01;;;;;;;15.68;6.65;;;;;;;;;;5014960;28;20044;-87
2022/03/09 05:26:27;;;;;;;14.00;7.32;;;;;;;;;;5016849;28;20041;-88
2022/03/09 05:28:56;;;;;;;13.90;6.88;;;;;;;;;;5017364;28;20018;-87
2022/03/09 05:31:22;;;;;;;11.95;6.30;;;;;;;;;;5017624;28;20025;-88
2022/03/09 05:33:48;;;;;;;13.55;7.38;;;;;;;;;;5017089;28;20028;-87
2022/03/09 05:36:14;;;;;;;19.75;7.55;;;;;;;;;;5017138;28;20025;-86
2022/03/09 05:38:40;;;;;;;13.70;6.75;;;;;;;;;;5017659;28;20462;-87
2022/03/09 05:41:06;;;;;;;16.00;7.07;;;;;;;;;;5017764;28;20033;-87
2022/03/09 05:43:32;;;;;;;15.57;7.07;;;;;;;;;;5016560;28;20485;-87
2022/03/09 05:45:58;;;;;;;13.48;7.10;;;;;;;;;;5018483;28;20045;-87
2022/03/09 05:48:24;;;;;;;13.80;7.72;;;;;;;;;;5017081;28;20482;-87
2022/03/09 05:50:50;;;;;;;14.55;7.25;;;;;;;;;;5016340;28;20037;-87
2022/03/09 05:53:16;;;;;;;14.45;6.53;;;;;;;;;;5015801;28;20026;-86
2022/03/09 05:55:42;;;;;;;12.85;6.53;;;;;;;;;;5016089;28;20025;-87
2022/03/09 05:58:08;;;;;;;14.48;6.78;;;;;;;;;;5015584;28;20118;-87
2022/03/09 06:00:34;;;;;;;14.75;6.53;;;;;;;;;;5015185;28;20022;-88
2022/03/09 06:03:00;;;;;;;17.65;6.97;;;;;;;;;;5030788;28;20029;-86
2022/03/09 06:05:26;;;;;;;13.57;7.03;;;;;;;;;;5026979;28;20073;-87
2022/03/09 06:07:52;;;;;;;15.73;7.10;;;;;;;;;;5018158;28;20418;-88
2022/03/09 06:10:19;;;;;;;15.85;6.97;;;;;;;;;;5017125;28;20029;-86
2022/03/09 06:12:45;;;;;;;11.32;6.28;;;;;;;;;;5016257;28;20033;-87
2022/03/09 06:15:11;;;;;;;15.35;7.10;;;;;;;;;;5013525;28;20017;-87
2022/03/09 06:17:44;;;;;;;15.07;6.95;;;;;;;;;;5004238;28;20030;-87
2022/03/09 06:20:10;;;;;;;15.30;7.40;;;;;;;;;;5001130;28;20034;-88
2022/03/09 06:22:36;;;;;;;12.82;6.57;;;;;;;;;;4995295;28;20026;-87
2022/03/09 06:25:02;;;;;;;15.30;6.90;;;;;;;;;;4994788;28;20023;-86
2022/03/09 06:27:28;;;;;;;12.20;6.60;;;;;;;;;;4993254;28;20023;-87
2022/03/09 06:29:55;;;;;;;16.83;7.40;;;;;;;;;;4992917;28;20023;-88
2022/03/09 06:32:21;;;;;;;18.63;7.70;;;;;;;;;;4996850;28;20376;-86
2022/03/09 06:34:47;;;;;;;16.85;7.90;;;;;;;;;;4999226;28;20026;-88
2022/03/09 06:37:13;;;;;;;15.70;7.57;;;;;;;;;;5000080;28;20030;-88
2022/03/09 06:39:39;;;;;;;17.52;7.65;;;;;;;;;;4995579;28;20030;-88
2022/03/09 06:42:05;;;;;;;15.15;7.22;;;;;;;;;;5039302;23;20045;-82
2022/03/09 06:44:31;;;;;;;15.45;7.72;;;;;;;;;;5063247;28;20044;-82
2022/03/09 06:46:58;;;;;;;15.00;7.30;;;;;;;;;;5061579;28;20034;-83
2022/03/09 06:49:24;;;;;;;18.42;7.70;;;;;;;;;;5056212;28;20147;-83
2022/03/09 06:51:50;;;;;;;15.73;7.47;;;;;;;;;;5030558;28;20424;-83
2022/03/09 06:54:16;;;;;;;16.52;8.07;;;;;;;;;;5036183;28;20017;-83
2022/03/09 06:56:42;;;;;;;14.60;7.18;;;;;;;;;;5036521;28;20048;-83
2022/03/09 06:59:08;;;;;;;21.00;7.70;;;;;;;;;;5019435;28;20052;-82
2022/03/09 07:01:34;;;;;;;20.45;8.80;;;;;;;;;;5037327;28;20033;-82
2022/03/09 07:04:00;;;;;;;17.10;8.63;;;;;;;;;;5020255;28;20106;-83
2022/03/09 07:06:26;;;;;;;13.30;7.30;;;;;;;;;;5022517;28;20036;-83
2022/03/09 07:08:52;;;;;;;17.27;7.68;;;;;;;;;;5022798;28;20037;-84
2022/03/09 07:11:18;;;;;;;19.08;7.38;;;;;;;;;;5044810;28;20423;-83
2022/03/09 07:13:44;;;;;;;18.40;7.72;;;;;;;;;;5022534;28;20025;-84
2022/03/09 07:16:10;;;;;;;16.08;7.55;;;;;;;;;;5040017;28;20045;-81
2022/03/09 07:18:36;;;;;;;13.77;7.25;;;;;;;;;;5022598;28;20021;-83
2022/03/09 07:21:02;;;;;;;16.05;7.95;;;;;;;;;;5023608;28;20034;-82
2022/03/09 07:23:28;;;;;;;14.85;7.80;;;;;;;;;;5047048;28;20037;-83
2022/03/09 07:25:54;;;;;;;17.58;6.95;;;;;;;;;;5050623;28;20017;-83
2022/03/09 07:28:20;;;;;;;15.38;7.05;;;;;;;;;;5050135;28;20032;-83
2022/03/09 07:30:46;;;;;;;15.68;7.10;;;;;;;;;;5064278;28;20022;-84
2022/03/09 07:33:12;;;;;;;18.27;6.47;;;;;;;;;;5069423;28;20473;-83
2022/03/09 07:35:38;;;;;;;13.45;7.35;;;;;;;;;;5044862;28;20028;-82
2022/03/09 07:38:06;;;;;;;14.50;6.97;;;;;;;;;;5064205;28;20103;-82
2022/03/09 07:40:32;;;;;;;13.95;6.20;;;;;;;;;;5053395;28;20044;-83
2022/03/09 07:42:58;;;;;;;18.55;7.35;;;;;;;;;;5071335;28;20048;-83
2022/03/09 07:45:24;;;;;;;13.13;6.75;;;;;;;;;;5042502;28;20030;-82
2022/03/09 07:47:50;;;;;;;14.88;7.85;;;;;;;;;;5065630;28;20047;-84
2022/03/09 07:50:16;;;;;;;12.25;7.20;;;;;;;;;;5060786;28;20044;-84
2022/03/09 07:52:42;;;;;;;16.50;7.53;;;;;;;;;;5077675;28;20028;-84
2022/03/09 07:55:08;;;;;;;13.43;7.20;;;;;;;;;;5077461;28;20017;-83
2022/03/09 07:57:34;;;;;;;19.45;7.97;;;;;;;;;;5061133;28;20029;-85
2022/03/09 08:00:00;;;;;;;12.00;6.85;;;;;;;;;;5076561;28;20029;-83
2022/03/09 08:02:26;;;;;;;10.55;6.40;;;;;;;;;;5061123;28;20063;-85
2022/03/09 08:04:52;;;;;;;13.98;7.15;;;;;;;;;;5060315;28;20025;-81
2022/03/09 08:07:18;;;;;;;14.95;6.97;;;;;;;;;;5071872;28;20021;-81
2022/03/09 08:09:44;;;;;;;15.07;7.65;;;;;;;;;;5049259;28;20025;-80
2022/03/09 08:12:11;;;;;;;20.33;7.93;;;;;;;;;;5049846;28;20068;-82
2022/03/09 08:14:37;;;;;;;17.20;7.45;;;;;;;;;;5018022;28;20022;-84
2022/03/09 08:17:03;;;;;;;13.57;6.85;;;;;;;;;;5035301;28;20063;-82
2022/03/09 08:19:29;;;;;;;11.88;7.55;;;;;;;;;;5017860;28;20116;-82
2022/03/09 08:21:55;;;;;;;15.23;7.88;;;;;;;;;;5017952;28;20037;-82
2022/03/09 08:24:22;;;;;;;17.33;7.20;;;;;;;;;;5038664;28;20033;-83
2022/03/09 08:26:49;;;;;;;14.98;8.15;;;;;;;;;;5028655;28;20014;-83
2022/03/09 08:29:15;;;;;;;16.50;7.95;;;;;;;;;;5044170;28;20440;-84
2022/03/09 08:31:42;;;;;;;13.45;7.43;;;;;;;;;;5111866;23;20601;-82
2022/03/09 08:34:08;;;;;;;17.48;7.97;;;;;;;;;;5045076;28;20033;-82
2022/03/09 08:36:42;;;;;;;16.73;8.50;;;;;;;;;;5044158;28;20033;-83
2022/03/09 08:39:08;;;;;;;18.40;8.40;;;;;;;;;;5044434;28;20072;-84
2022/03/09 08:41:35;;;;;;;14.63;8.02;;;;;;;;;;5026645;28;20037;-83
2022/03/09 08:44:01;;;;;;;13.43;7.85;;;;;;;;;;5045534;28;20047;-83
2022/03/09 08:46:27;;;;;;;12.98;7.78;;;;;;;;;;5047707;28;20049;-83
2022/03/09 08:48:53;;;;;;;13.95;7.90;;;;;;;;;;5046360;28;20483;-83
2022/03/09 08:51:21;;;;;;;20.10;8.10;;;;;;;;;;5046636;28;20033;-83
2022/03/09 08:53:47;;;;;;;15.32;8.70;;;;;;;;;;5046829;28;20079;-83
2022/03/09 08:56:13;;;;;;;14.18;8.15;;;;;;;;;;5044339;28;20037;-84
2022/03/09 08:58:39;;;;;;;18.67;8.77;;;;;;;;;;5041803;28;20021;-83
2022/03/09 09:01:05;;;;;;;14.00;8.77;;;;;;;;;;5039720;28;20030;-82
2022/03/09 09:03:32;;;;;;;13.23;8.80;;;;;;;;;;5040214;28;20033;-83
2022/03/09 09:05:58;;;;;;;14.73;9.40;;;;;;;;;;5040570;28;20026;-83
2022/03/09 09:08:24;;;;;;;13.15;8.05;;;;;;;;;;5039932;28;20037;-82
2022/03/09 09:10:50;;;;;;;20.10;9.13;;;;;;;;;;5039506;28;20438;-83
2022/03/09 09:13:16;;;;;;;12.95;8.60;;;;;;;;;;5040525;28;20045;-82
2022/03/09 09:15:43;;;;;;;17.17;9.88;;;;;;;;;;5040090;28;20025;-82
2022/03/09 09:18:09;;;;;;;15.50;9.75;;;;;;;;;;5039226;28;20017;-82
2022/03/09 09:20:35;;;;;;;15.73;10.55;;;;;;;;;;5038919;28;20027;-81
2022/03/09 09:23:02;;;;;;;14.15;9.85;;;;;;;;;;5039773;28;20033;-80
2022/03/09 09:25:28;;;;;;;18.67;10.48;;;;;;;;;;5039867;28;20113;-83
2022/03/09 09:27:56;;;;;;;13.90;10.10;;;;;;;;;;5040835;28;20032;-82
2022/03/09 09:30:22;;;;;;;13.30;9.52;;;;;;;;;;5040238;28;20022;-81
2022/03/09 09:32:49;;;;;;;20.40;10.77;;;;;;;;;;5037757;28;20440;-82
2022/03/09 09:35:16;;;;;;;18.08;11.30;;;;;;;;;;5040793;28;20022;-82
2022/03/09 09:37:43;;;;;;;16.52;10.32;;;;;;;;;;5038340;28;20115;-81
2022/03/09 09:40:10;;;;;;;16.35;10.40;;;;;;;;;;5038213;28;20105;-81
2022/03/09 09:42:36;;;;;;;19.58;11.18;;;;;;;;;;5038260;28;20021;-82
2022/03/09 09:45:03;;;;;;;14.27;10.30;;;;;;;;;;5038180;28;20374;-80
2022/03/09 09:47:30;;;;;;;17.13;9.32;;;;;;;;;;5037159;28;20091;-81
2022/03/09 09:49:56;;;;;;;18.08;10.13;;;;;;;;;;5038226;28;20025;-79
2022/03/09 09:52:24;;;;;;;18.88;10.93;;;;;;;;;;5038059;28;20441;-83
2022/03/09 09:54:52;;;;;;;16.20;10.75;;;;;;;;;;5038791;28;20072;-82
2022/03/09 09:57:18;;;;;;;15.02;10.27;;;;;;;;;;5019680;28;20032;-81
2022/03/09 09:59:44;;;;;;;13.82;9.40;;;;;;;;;;5041104;28;20033;-82
2022/03/09 10:02:10;;;;;;;15.45;10.18;;;;;;;;;;5048730;28;20034;-83
2022/03/09 10:04:39;;;;;;;18.40;10.60;;;;;;;;;;5032850;28;20021;-83
2022/03/09 10:07:05;;;;;;;14.40;10.82;;;;;;;;;;5035942;28;20017;-82
2022/03/09 10:09:35;;;;;;;19.15;11.05;;;;;;;;;;5053634;28;20033;-82
2022/03/09 10:12:01;;;;;;;17.90;10.45;;;;;;;;;;5053922;28;20026;-82
2022/03/09 10:14:47;;;;;;;16.73;10.43;;;;;;;;;;5055311;28;20059;-83
2022/03/09 10:17:40;;;;;;;16.20;11.30;;;;;;;;;;5054942;28;20477;-83
2022/03/09 10:20:10;;;;;;;16.95;11.93;;;;;;;;;;5035194;28;20081;-83
2022/03/09 10:22:45;;;;;;;18.77;11.02;;;;;;;;;;5055377;28;20017;-83
2022/03/09 10:25:11;;;;;;;23.52;11.68;;;;;;;;;;5055740;28;20030;-84
2022/03/09 10:27:38;;;;;;;17.80;10.98;;;;;;;;;;5055503;28;20020;-82
2022/03/09 10:30:06;;;;;;;17.20;11.60;;;;;;;;;;5055639;28;20029;-81
2022/03/09 10:32:43;;;;;;;17.83;12.43;;;;;;;;;;5055203;28;20037;-82
2022/03/09 10:35:09;;;;;;;17.85;12.05;;;;;;;;;;5056639;28;20034;-85
2022/03/09 10:37:39;;;;;;;16.52;11.07;;;;;;;;;;5057521;28;20022;-84
2022/03/09 10:40:16;;;;;;;21.73;12.98;;;;;;;;;;5060357;28;20061;-83
2022/03/09 10:42:42;;;;;;;22.05;13.70;;;;;;;;;;5060808;28;20041;-83
2022/03/09 10:45:09;;;;;;;19.90;13.40;;;;;;;;;;5060884;28;20048;-85
2022/03/09 10:47:41;;;;;;;21.08;14.38;;;;;;;;;;5060214;28;20043;-84
2022/03/09 10:50:13;;;;;;;20.08;13.13;;;;;;;;;;5060509;28;20085;-86
2022/03/09 10:52:50;;;;;;;18.75;12.43;;;;;;;;;;5060762;28;20021;-86
2022/03/09 10:55:29;;;;;;;18.85;13.55;;;;;;;;;;5060723;28;20045;-85
2022/03/09 10:58:13;;;;;;;22.00;14.45;;;;;;;;;;5043929;28;20032;-84
2022/03/09 11:00:51;;;;;;;21.33;14.13;;;;;;;;;;5060891;28;20028;-84
2022/03/09 11:03:18;;;;;;;22.13;14.60;;;;;;;;;;5060819;28;20026;-85
2022/03/09 11:06:10;;;;;;;19.17;13.80;;;;;;;;;;5061312;28;20017;-86
2022/03/09 11:08:37;;;;;;;22.73;13.88;;;;;;;;;;5057463;28;20060;-83
2022/03/09 11:11:04;;;;;;;23.42;13.70;;;;;;;;;;5060196;28;20029;-83
2022/03/09 11:13:33;;;;;;;20.52;14.13;;;;;;;;;;5060157;28;20014;-85
2022/03/09 11:15:59;;;;;;;21.05;14.63;;;;;;;;;;5043207;28;20021;-83
2022/03/09 11:18:26;;;;;;;25.45;14.35;;;;;;;;;;5042877;28;20077;-83
2022/03/09 11:20:54;;;;;;;23.83;14.82;;;;;;;;;;5060170;28;20005;-83
2022/03/09 11:23:20;;;;;;;20.15;14.43;;;;;;;;;;5058681;28;20025;-82
2022/03/09 11:25:59;;;;;;;22.10;14.52;;;;;;;;;;5058535;28;20057;-82
2022/03/09 11:28:36;;;;;;;22.65;15.13;;;;;;;;;;5058571;28;20025;-82
2022/03/09 11:31:04;;;;;;;21.20;14.45;;;;;;;;;;5058504;28;20029;-83
2022/03/09 11:33:36;;;;;;;22.92;15.80;;;;;;;;;;5057574;28;20029;-84
2022/03/09 11:36:03;;;;;;;22.80;15.43;;;;;;;;;;5059222;28;20014;-84
2022/03/09 11:38:32;;;;;;;25.92;16.92;;;;;;;;;;5059975;28;20010;-83
2022/03/09 11:41:18;;;;;;;23.35;15.48;;;;;;;;;;5059171;28;20032;-85
2022/03/09 11:43:44;;;;;;;26.88;17.33;;;;;;;;;;5059671;28;20045;-84
2022/03/09 11:46:10;;;;;;;24.95;16.25;;;;;;;;;;5059440;28;20037;-84
2022/03/09 11:48:57;;;;;;;26.65;16.70;;;;;;;;;;5059200;28;20036;-84
2022/03/09 11:51:27;;;;;;;25.48;17.00;;;;;;;;;;5059053;28;20060;-84
2022/03/09 11:53:54;;;;;;;24.45;16.55;;;;;;;;;;5059400;28;20025;-84
2022/03/09 11:56:24;;;;;;;27.77;17.15;;;;;;;;;;5040291;28;20021;-83
2022/03/09 11:59:09;;;;;;;26.48;16.77;;;;;;;;;;5059180;28;20044;-84
2022/03/09 12:01:54;;;;;;;29.00;16.75;;;;;;;;;;5057854;28;20050;-83
2022/03/09 12:04:39;;;;;;;30.90;17.17;;;;;;;;;;5059182;28;20073;-82
2022/03/09 12:07:05;;;;;;;27.98;16.77;;;;;;;;;;5059184;28;20017;-83
2022/03/09 12:09:50;;;;;;;26.75;16.55;;;;;;;;;;5042118;28;20017;-84
2022/03/09 12:12:16;;;;;;;28.95;16.55;;;;;;;;;;5059169;28;20016;-83
2022/03/09 12:14:57;;;;;;;27.95;16.02;;;;;;;;;;5059524;28;20067;-83
2022/03/09 12:17:34;;;;;;;27.13;16.40;;;;;;;;;;5058876;28;20032;-83
2022/03/09 12:20:15;;;;;;;26.35;16.15;;;;;;;;;;5057528;28;20466;-82
2022/03/09 12:22:56;;;;;;;28.73;17.17;;;;;;;;;;5057582;28;20080;-82
2022/03/09 12:25:38;;;;;;;25.60;15.82;;;;;;;;;;5058602;28;20082;-83
2022/03/09 12:28:25;;;;;;;26.95;16.58;;;;;;;;;;5058855;28;20024;-83
2022/03/09 12:30:56;;;;;;;26.65;15.55;;;;;;;;;;5058138;28;20024;-82
2022/03/09 12:33:26;;;;;;;31.75;17.30;;;;;;;;;;5056363;28;20025;-83
2022/03/09 12:35:52;;;;;;;29.90;15.75;;;;;;;;;;5057535;28;20029;-83
2022/03/09 12:38:19;;;;;;;25.20;15.20;;;;;;;;;;5058997;28;20022;-83
2022/03/09 12:40:45;;;;;;;26.27;15.93;;;;;;;;;;5058676;28;20026;-83
2022/03/09 12:43:13;;;;;;;30.02;16.00;;;;;;;;;;5084657;22;20059;-87
2022/03/09 12:45:55;;;;;;;30.13;16.63;;;;;;;;;;5042808;28;20029;-87
2022/03/09 12:48:23;;;;;;;29.02;17.02;;;;;;;;;;5024167;28;20036;-87
2022/03/09 12:50:49;;;;;;;28.40;16.13;;;;;;;;;;5048930;28;20025;-86
2022/03/09 12:53:19;;;;;;;33.53;14.90;;;;;;;;;;5044930;28;20064;-87
2022/03/09 12:55:46;;;;;;;28.63;15.52;;;;;;;;;;5066676;28;20024;-88
2022/03/09 12:58:12;;;;;;;30.10;15.75;;;;;;;;;;5065318;28;20021;-88
2022/03/09 13:00:38;;;;;;;30.23;15.30;;;;;;;;;;5065172;28;20044;-86
2022/03/09 13:03:18;;;;;;;27.25;15.52;;;;;;;;;;5065697;28;20047;-88
2022/03/09 13:05:44;;;;;;;28.90;15.85;;;;;;;;;;5048073;28;20079;-87
2022/03/09 13:08:21;;;;;;;29.90;15.88;;;;;;;;;;5047368;28;20032;-86
2022/03/09 13:10:51;;;;;;;26.55;15.20;;;;;;;;;;5065175;28;20104;-86
2022/03/09 13:13:34;;;;;;;27.45;14.57;;;;;;;;;;5064509;28;20098;-86
2022/03/09 13:16:03;;;;;;;30.20;16.42;;;;;;;;;;5045791;28;20079;-88
2022/03/09 13:18:31;;;;;;;27.95;15.70;;;;;;;;;;5046658;28;20033;-86
2022/03/09 13:23:52;;;;;;;27.33;14.00;;;;;;;;;;5059211;28;20032;-85
2022/03/09 13:26:22;;;;;;;25.00;14.50;;;;;;;;;;5040442;28;20033;-85
2022/03/09 13:29:16;;;;;;;25.93;15.07;;;;;;;;;;5058682;28;20025;-86
2022/03/09 13:31:57;;;;;;;28.27;15.00;;;;;;;;;;5046618;28;20067;-85
2022/03/09 13:34:23;;;;;;;;;;;;;;;;;;5057694;28;20432;-86
2022/03/09 13:37:23;;;;;;;26.20;14.60;;;;;;;;;;5038075;28;19912;-88
2022/03/09 13:40:26;;;;;;;25.98;15.43;;;;;;;;;;5037733;28;20033;-86
2022/03/09 13:43:21;;;;;;;29.08;15.70;;;;;;;;;;5037165;28;20041;-85
2022/03/09 13:46:26;;;;;;;;;;;;;;;;;;;;;
2022/03/09 13:49:28;;;;;;;31.25;16.35;;;;;;;;;;5004685;28;20107;-86
2022/03/09 13:55:33;;;;;;;27.73;15.35;;;;;;;;;;4955717;29;20034;-86
2022/03/09 14:01:03;;;;;;;24.38;15.30;;;;;;;;;;5023985;28;20033;-85
2022/03/09 14:06:41;;;;;;;26.25;15.77;;;;;;;;;;5012471;28;20029;-87
2022/03/09 14:09:13;;;;;;;25.88;15.88;;;;;;;;;;5013866;28;20030;-88
2022/03/09 14:11:47;;;;;;;26.63;15.70;;;;;;;;;;5033432;28;20105;-85
2022/03/09 14:17:31;;;;;;;25.30;15.90;;;;;;;;;;5024326;28;20029;-86
2022/03/09 14:22:58;;;;;;;26.67;17.00;;;;;;;;;;5015103;28;20029;-85
2022/03/09 14:25:38;;;;;;;27.95;16.45;;;;;;;;;;5016704;28;20489;-89
2022/03/09 14:31:09;;;;;;;27.45;16.17;;;;;;;;;;5038014;28;20029;-87
2022/03/09 14:33:46;;;;;;;29.63;16.58;;;;;;;;;;5014380;28;20025;-87
2022/03/09 14:36:25;;;;;;;31.85;16.20;;;;;;;;;;5015559;28;20036;-89
2022/03/09 14:39:00;;;;;;;25.73;15.70;;;;;;;;;;5015507;28;20026;-86
2022/03/09 14:45:06;;;;;;;;;;;;;;;;;;;;;
2022/03/09 14:47:40;;;;;;;25.20;16.13;;;;;;;;;;4998460;28;20041;-86
2022/03/09 14:50:34;;;;;;;24.58;16.02;;;;;;;;;;5017346;28;20036;-85
2022/03/09 14:57:02;;;;;;;28.35;16.70;;;;;;;;;;4971105;28;20086;-86
2022/03/09 14:59:15;;;;;;;22.58;14.73;;;;;;;;;;4963892;28;20030;-87
2022/03/09 15:01:49;;;;;;;26.83;16.75;;;;;;;;;;5029264;28;20037;-88
2022/03/09 15:07:22;;;;;;;25.17;16.17;;;;;;;;;;4990118;28;20051;-87
2022/03/09 15:10:07;;;;;;;;;;;;;;;;;;;;;
2022/03/09 15:13:04;;;;;;;25.10;15.38;;;;;;;;;;5041991;28;20036;-87